Terminal Aerodrome Forecast
Issued by NWS

Home | Current Version | Previous Version | Text Only | Print | Product List | Glossary On
Versions: 1 2 3 4 5 6 7 8 9 10 11 12
000
FTUS45 KABQ 011100
TAFLVS
TAF
KLVS 011139Z 0112/0212 20011KT P6SM VCSH SCT025 BKN040
     FM011500 20019G29KT P6SM SCT040
     FM020200 20015KT P6SM SCT040
     FM020600 21015G25KT P6SM VCSH SCT005 BKN010=

USA.gov is the U.S. government's official web portal to all federal, state and local government web resources and services.